sensor_id;sensor_type;location;lat;lon;timestamp;pressure;altitude;pressure_sealevel;temperature;humidity
66524;BME280;53350;52.210;5.160;2022-12-10T00:01:34;100879.63;;;2.48;73.64
66524;BME280;53350;52.210;5.160;2022-12-10T00:04:02;100883.66;;;2.38;74.34
66524;BME280;53350;52.210;5.160;2022-12-10T00:06:30;100884.44;;;2.36;73.99
66524;BME280;53350;52.210;5.160;2022-12-10T00:08:58;100886.13;;;2.35;74.56
66524;BME280;53350;52.210;5.160;2022-12-10T00:11:25;100890.50;;;2.41;74.35
66524;BME280;53350;52.210;5.160;2022-12-10T00:13:52;100894.81;;;2.45;74.43
66524;BME280;53350;52.210;5.160;2022-12-10T00:16:20;100890.66;;;2.49;74.30
66524;BME280;53350;52.210;5.160;2022-12-10T00:18:47;100889.91;;;2.53;74.09
66524;BME280;53350;52.210;5.160;2022-12-10T00:21:17;100899.28;;;2.55;74.03
66524;BME280;53350;52.210;5.160;2022-12-10T00:23:44;100894.19;;;2.55;73.93
66524;BME280;53350;52.210;5.160;2022-12-10T00:26:12;100895.84;;;2.55;73.96
66524;BME280;53350;52.210;5.160;2022-12-10T00:28:39;100900.13;;;2.56;73.85
66524;BME280;53350;52.210;5.160;2022-12-10T00:31:09;100900.19;;;2.59;74.01
66524;BME280;53350;52.210;5.160;2022-12-10T00:33:36;100892.59;;;2.60;73.63
66524;BME280;53350;52.210;5.160;2022-12-10T00:36:04;100891.72;;;2.58;73.65
66524;BME280;53350;52.210;5.160;2022-12-10T00:38:32;100889.16;;;2.58;73.43
66524;BME280;53350;52.210;5.160;2022-12-10T00:40:59;100892.50;;;2.56;73.54
66524;BME280;53350;52.210;5.160;2022-12-10T00:43:25;100895.03;;;2.56;73.57
66524;BME280;53350;52.210;5.160;2022-12-10T00:45:52;100896.72;;;2.55;73.49
66524;BME280;53350;52.210;5.160;2022-12-10T00:48:18;100892.50;;;2.56;73.56
66524;BME280;53350;52.210;5.160;2022-12-10T00:50:54;100898.41;;;2.55;73.61
66524;BME280;53350;52.210;5.160;2022-12-10T00:53:21;100896.75;;;2.57;73.50
66524;BME280;53350;52.210;5.160;2022-12-10T00:55:48;100896.78;;;2.58;73.62
66524;BME280;53350;52.210;5.160;2022-12-10T00:58:15;100897.50;;;2.51;73.52
66524;BME280;53350;52.210;5.160;2022-12-10T01:00:41;100894.88;;;2.48;73.52
66524;BME280;53350;52.210;5.160;2022-12-10T01:03:08;100908.44;;;2.49;73.85
66524;BME280;53350;52.210;5.160;2022-12-10T01:05:34;100902.38;;;2.42;73.85
66524;BME280;53350;52.210;5.160;2022-12-10T01:08:00;100910.03;;;2.43;73.91
66524;BME280;53350;52.210;5.160;2022-12-10T01:10:27;100913.47;;;2.46;74.08
66524;BME280;53350;52.210;5.160;2022-12-10T01:12:55;100905.88;;;2.47;74.09
66524;BME280;53350;52.210;5.160;2022-12-10T01:15:21;100915.00;;;2.39;74.27
66524;BME280;53350;52.210;5.160;2022-12-10T01:17:48;100919.91;;;2.31;74.76
66524;BME280;53350;52.210;5.160;2022-12-10T01:20:14;100917.22;;;2.23;74.75
66524;BME280;53350;52.210;5.160;2022-12-10T01:22:41;100920.56;;;2.22;74.83
66524;BME280;53350;52.210;5.160;2022-12-10T01:25:07;100934.13;;;2.23;75.23
66524;BME280;53350;52.210;5.160;2022-12-10T01:27:34;100933.38;;;2.27;74.83
66524;BME280;53350;52.210;5.160;2022-12-10T01:30:02;100919.91;;;2.31;75.16
66524;BME280;53350;52.210;5.160;2022-12-10T01:32:28;100926.78;;;2.35;74.96
66524;BME280;53350;52.210;5.160;2022-12-10T01:34:55;100926.00;;;2.38;75.19
66524;BME280;53350;52.210;5.160;2022-12-10T01:37:21;100926.09;;;2.41;75.06
66524;BME280;53350;52.210;5.160;2022-12-10T01:39:47;100934.63;;;2.44;74.86
66524;BME280;53350;52.210;5.160;2022-12-10T01:42:14;100940.63;;;2.47;74.86
66524;BME280;53350;52.210;5.160;2022-12-10T01:45:10;100942.28;;;2.46;74.72
66524;BME280;53350;52.210;5.160;2022-12-10T01:47:38;100935.47;;;2.43;75.35
66524;BME280;53350;52.210;5.160;2022-12-10T01:50:06;100946.50;;;2.46;74.92
66524;BME280;53350;52.210;5.160;2022-12-10T01:52:34;100944.81;;;2.46;74.75
66524;BME280;53350;52.210;5.160;2022-12-10T01:55:01;100948.22;;;2.45;74.76
66524;BME280;53350;52.210;5.160;2022-12-10T01:57:28;100948.22;;;2.45;75.10
66524;BME280;53350;52.210;5.160;2022-12-10T01:59:57;100955.88;;;2.47;74.72
66524;BME280;53350;52.210;5.160;2022-12-10T02:02:34;100949.03;;;2.44;74.82
66524;BME280;53350;52.210;5.160;2022-12-10T02:05:15;100953.09;;;2.37;75.23
66524;BME280;53350;52.210;5.160;2022-12-10T02:07:52;100956.53;;;2.38;75.37
66524;BME280;53350;52.210;5.160;2022-12-10T02:10:26;100957.34;;;2.37;75.21
66524;BME280;53350;52.210;5.160;2022-12-10T02:13:02;100947.16;;;2.37;75.28
66524;BME280;53350;52.210;5.160;2022-12-10T02:15:33;100953.94;;;2.36;75.14
66524;BME280;53350;52.210;5.160;2022-12-10T02:18:07;100957.16;;;2.29;75.90
66524;BME280;53350;52.210;5.160;2022-12-10T02:20:37;100944.22;;;2.20;75.98
66524;BME280;53350;52.210;5.160;2022-12-10T02:23:09;100938.13;;;2.12;76.70
66524;BME280;53350;52.210;5.160;2022-12-10T02:25:41;100950.72;;;2.08;76.74
66524;BME280;53350;52.210;5.160;2022-12-10T02:28:17;100937.22;;;2.09;76.51
66524;BME280;53350;52.210;5.160;2022-12-10T02:30:48;100945.84;;;2.16;76.51
66524;BME280;53350;52.210;5.160;2022-12-10T02:33:17;100940.94;;;2.24;76.69
66524;BME280;53350;52.210;5.160;2022-12-10T02:35:46;100949.50;;;2.28;76.66
66524;BME280;53350;52.210;5.160;2022-12-10T02:38:17;100943.66;;;2.32;76.79
66524;BME280;53350;52.210;5.160;2022-12-10T02:40:49;100941.88;;;2.28;76.51
66524;BME280;53350;52.210;5.160;2022-12-10T02:43:17;100950.19;;;2.20;77.11
66524;BME280;53350;52.210;5.160;2022-12-10T02:45:44;100944.25;;;2.21;76.57
66524;BME280;53350;52.210;5.160;2022-12-10T02:48:13;100946.09;;;2.27;77.27
66524;BME280;53350;52.210;5.160;2022-12-10T02:50:40;100949.53;;;2.29;76.92
66524;BME280;53350;52.210;5.160;2022-12-10T02:53:07;100953.00;;;2.33;76.41
66524;BME280;53350;52.210;5.160;2022-12-10T02:55:48;100954.81;;;2.38;76.47
66524;BME280;53350;52.210;5.160;2022-12-10T02:58:27;100941.44;;;2.46;76.57
66524;BME280;53350;52.210;5.160;2022-12-10T03:01:01;100952.53;;;2.49;76.22
66524;BME280;53350;52.210;5.160;2022-12-10T03:03:40;100960.25;;;2.52;76.06
66524;BME280;53350;52.210;5.160;2022-12-10T03:06:13;100951.69;;;2.50;76.64
66524;BME280;53350;52.210;5.160;2022-12-10T03:08:46;100956.81;;;2.52;76.30
66524;BME280;53350;52.210;5.160;2022-12-10T03:11:16;100945.03;;;2.55;76.35
66524;BME280;53350;52.210;5.160;2022-12-10T03:13:49;100949.09;;;2.47;75.98
66524;BME280;53350;52.210;5.160;2022-12-10T03:16:18;100952.34;;;2.41;76.34
66524;BME280;53350;52.210;5.160;2022-12-10T03:18:49;100950.66;;;2.40;76.85
66524;BME280;53350;52.210;5.160;2022-12-10T03:21:18;100947.38;;;2.46;76.80
66524;BME280;53350;52.210;5.160;2022-12-10T03:23:46;100950.03;;;2.51;76.94
66524;BME280;53350;52.210;5.160;2022-12-10T03:26:14;100950.91;;;2.53;76.68
66524;BME280;53350;52.210;5.160;2022-12-10T03:28:45;100945.00;;;2.54;76.63
66524;BME280;53350;52.210;5.160;2022-12-10T03:31:14;100939.09;;;2.55;76.33
66524;BME280;53350;52.210;5.160;2022-12-10T03:33:41;100941.75;;;2.59;76.87
66524;BME280;53350;52.210;5.160;2022-12-10T03:36:10;100937.59;;;2.65;76.70
66524;BME280;53350;52.210;5.160;2022-12-10T03:38:38;100938.44;;;2.64;76.63
66524;BME280;53350;52.210;5.160;2022-12-10T03:41:06;100932.56;;;2.66;76.40
66524;BME280;53350;52.210;5.160;2022-12-10T03:43:32;100939.25;;;2.61;76.36
66524;BME280;53350;52.210;5.160;2022-12-10T03:45:59;100930.63;;;2.56;76.53
66524;BME280;53350;52.210;5.160;2022-12-10T03:48:25;100927.97;;;2.50;76.92
66524;BME280;53350;52.210;5.160;2022-12-10T03:50:51;100935.63;;;2.51;77.03
66524;BME280;53350;52.210;5.160;2022-12-10T03:53:19;100909.19;;;2.44;76.67
66524;BME280;53350;52.210;5.160;2022-12-10T03:55:45;100926.38;;;2.55;76.73
66524;BME280;53350;52.210;5.160;2022-12-10T03:58:12;100929.69;;;2.51;76.78
66524;BME280;53350;52.210;5.160;2022-12-10T04:00:38;100925.44;;;2.50;76.60
66524;BME280;53350;52.210;5.160;2022-12-10T04:03:05;100929.66;;;2.49;76.72
66524;BME280;53350;52.210;5.160;2022-12-10T04:05:31;100934.63;;;2.44;76.44
66524;BME280;53350;52.210;5.160;2022-12-10T04:07:58;100935.34;;;2.39;77.14
66524;BME280;53350;52.210;5.160;2022-12-10T04:10:26;100931.13;;;2.39;77.17
66524;BME280;53350;52.210;5.160;2022-12-10T04:12:52;100934.63;;;2.44;77.07
66524;BME280;53350;52.210;5.160;2022-12-10T04:15:32;100935.63;;;2.51;77.33
66524;BME280;53350;52.210;5.160;2022-12-10T04:18:16;100938.19;;;2.53;77.06
66524;BME280;53350;52.210;5.160;2022-12-10T04:20:43;100934.88;;;2.55;77.13
66524;BME280;53350;52.210;5.160;2022-12-10T04:23:26;100938.28;;;2.57;77.17
66524;BME280;53350;52.210;5.160;2022-12-10T04:26:12;100942.59;;;2.60;76.90
66524;BME280;53350;52.210;5.160;2022-12-10T04:28:56;100940.13;;;2.63;76.52
66524;BME280;53350;52.210;5.160;2022-12-10T04:31:22;100937.56;;;2.63;76.54
66524;BME280;53350;52.210;5.160;2022-12-10T04:33:49;100948.63;;;2.64;76.48
66524;BME280;53350;52.210;5.160;2022-12-10T04:36:15;100945.25;;;2.66;76.81
66524;BME280;53350;52.210;5.160;2022-12-10T04:38:42;100944.50;;;2.70;76.49
66524;BME280;53350;52.210;5.160;2022-12-10T04:41:08;100942.88;;;2.72;76.12
66524;BME280;53350;52.210;5.160;2022-12-10T04:43:41;100951.38;;;2.74;76.05
66524;BME280;53350;52.210;5.160;2022-12-10T04:46:08;100948.03;;;2.75;76.13
66524;BME280;53350;52.210;5.160;2022-12-10T04:48:35;100950.53;;;2.74;75.85
66524;BME280;53350;52.210;5.160;2022-12-10T04:51:02;100948.03;;;2.75;76.67
66524;BME280;53350;52.210;5.160;2022-12-10T04:53:28;100952.25;;;2.76;76.33
66524;BME280;53350;52.210;5.160;2022-12-10T04:55:55;100937.88;;;2.77;76.44
66524;BME280;53350;52.210;5.160;2022-12-10T04:58:21;100945.56;;;2.80;76.47
66524;BME280;53350;52.210;5.160;2022-12-10T05:00:49;100945.50;;;2.77;76.42
66524;BME280;53350;52.210;5.160;2022-12-10T05:03:16;100948.88;;;2.76;76.45
66524;BME280;53350;52.210;5.160;2022-12-10T05:05:42;100953.88;;;2.71;76.11
66524;BME280;53350;52.210;5.160;2022-12-10T05:08:08;100952.72;;;2.57;76.47
66524;BME280;53350;52.210;5.160;2022-12-10T05:10:35;100952.44;;;2.46;76.18
66524;BME280;53350;52.210;5.160;2022-12-10T05:13:01;100951.44;;;2.38;76.11
66524;BME280;53350;52.210;5.160;2022-12-10T05:15:28;100957.22;;;2.32;77.01
66524;BME280;53350;52.210;5.160;2022-12-10T05:17:55;100954.47;;;2.23;77.17
66524;BME280;53350;52.210;5.160;2022-12-10T05:20:22;100963.03;;;2.26;77.09
66524;BME280;53350;52.210;5.160;2022-12-10T05:22:48;100958.84;;;2.30;77.67
66524;BME280;53350;52.210;5.160;2022-12-10T05:25:32;100947.97;;;2.36;77.41
66524;BME280;53350;52.210;5.160;2022-12-10T05:28:17;100945.59;;;2.42;77.14
66524;BME280;53350;52.210;5.160;2022-12-10T05:30:44;100949.81;;;2.41;77.05
66524;BME280;53350;52.210;5.160;2022-12-10T05:33:12;100946.38;;;2.39;76.93
66524;BME280;53350;52.210;5.160;2022-12-10T05:35:38;100944.72;;;2.41;76.83
66524;BME280;53350;52.210;5.160;2022-12-10T05:38:04;100949.94;;;2.48;76.80
66524;BME280;53350;52.210;5.160;2022-12-10T05:40:33;100954.22;;;2.49;76.78
66524;BME280;53350;52.210;5.160;2022-12-10T05:43:00;100956.78;;;2.50;76.79
66524;BME280;53350;52.210;5.160;2022-12-10T05:45:26;100959.22;;;2.46;76.82
66524;BME280;53350;52.210;5.160;2022-12-10T05:47:53;100959.94;;;2.40;76.87
66524;BME280;53350;52.210;5.160;2022-12-10T05:50:20;100958.19;;;2.37;76.98
66524;BME280;53350;52.210;5.160;2022-12-10T05:52:47;100958.13;;;2.34;76.74
66524;BME280;53350;52.210;5.160;2022-12-10T05:55:16;100954.72;;;2.34;76.63
66524;BME280;53350;52.210;5.160;2022-12-10T05:57:42;100958.22;;;2.39;76.73
66524;BME280;53350;52.210;5.160;2022-12-10T06:00:10;100961.66;;;2.41;76.66
66524;BME280;53350;52.210;5.160;2022-12-10T06:02:36;100958.31;;;2.42;76.53
66524;BME280;53350;52.210;5.160;2022-12-10T06:05:03;100965.84;;;2.39;76.94
66524;BME280;53350;52.210;5.160;2022-12-10T06:07:31;100966.59;;;2.33;76.39
66524;BME280;53350;52.210;5.160;2022-12-10T06:09:57;100971.69;;;2.35;76.75
66524;BME280;53350;52.210;5.160;2022-12-10T06:12:23;100968.34;;;2.37;76.95
66524;BME280;53350;52.210;5.160;2022-12-10T06:14:50;100975.19;;;2.40;76.48
66524;BME280;53350;52.210;5.160;2022-12-10T06:17:16;100973.47;;;2.39;76.44
66524;BME280;53350;52.210;5.160;2022-12-10T06:19:43;100972.56;;;2.35;77.02
66524;BME280;53350;52.210;5.160;2022-12-10T06:22:09;100972.41;;;2.29;76.89
66524;BME280;53350;52.210;5.160;2022-12-10T06:24:37;100972.44;;;2.31;77.52
66524;BME280;53350;52.210;5.160;2022-12-10T06:27:03;100981.00;;;2.34;77.10
66524;BME280;53350;52.210;5.160;2022-12-10T06:29:30;100976.78;;;2.35;77.24
66524;BME280;53350;52.210;5.160;2022-12-10T06:31:57;100974.13;;;2.30;77.34
66524;BME280;53350;52.210;5.160;2022-12-10T06:34:23;100977.53;;;2.31;77.43
66524;BME280;53350;52.210;5.160;2022-12-10T06:36:49;100973.19;;;2.26;77.50
66524;BME280;53350;52.210;5.160;2022-12-10T06:39:16;100981.63;;;2.25;77.22
66524;BME280;53350;52.210;5.160;2022-12-10T06:41:43;100986.56;;;2.19;77.29
66524;BME280;53350;52.210;5.160;2022-12-10T06:44:11;100984.88;;;2.20;77.34
66524;BME280;53350;52.210;5.160;2022-12-10T06:46:39;100988.34;;;2.22;77.29
66524;BME280;53350;52.210;5.160;2022-12-10T06:49:06;100996.13;;;2.30;77.47
66524;BME280;53350;52.210;5.160;2022-12-10T06:51:33;100995.41;;;2.34;77.53
66524;BME280;53350;52.210;5.160;2022-12-10T06:54:00;100993.50;;;2.25;77.44
66524;BME280;53350;52.210;5.160;2022-12-10T06:56:26;100990.22;;;2.29;77.44
66524;BME280;53350;52.210;5.160;2022-12-10T06:58:54;100993.63;;;2.31;77.61
66524;BME280;53350;52.210;5.160;2022-12-10T07:01:22;100998.53;;;2.23;77.36
66524;BME280;53350;52.210;5.160;2022-12-10T07:03:52;101003.59;;;2.22;77.56
66524;BME280;53350;52.210;5.160;2022-12-10T07:06:20;101003.28;;;2.09;77.79
66524;BME280;53350;52.210;5.160;2022-12-10T07:08:47;101014.16;;;2.05;77.55
66524;BME280;53350;52.210;5.160;2022-12-10T07:11:15;101012.47;;;2.04;77.82
66524;BME280;53350;52.210;5.160;2022-12-10T07:13:42;101021.69;;;2.01;78.00
66524;BME280;53350;52.210;5.160;2022-12-10T07:16:14;101015.00;;;2.04;77.81
66524;BME280;53350;52.210;5.160;2022-12-10T07:18:41;101023.66;;;2.13;77.73
66524;BME280;53350;52.210;5.160;2022-12-10T07:21:14;101020.38;;;2.17;77.53
66524;BME280;53350;52.210;5.160;2022-12-10T07:23:41;101024.81;;;2.24;77.91
66524;BME280;53350;52.210;5.160;2022-12-10T07:26:07;101021.44;;;2.25;77.52
66524;BME280;53350;52.210;5.160;2022-12-10T07:28:34;101024.94;;;2.30;77.34
66524;BME280;53350;52.210;5.160;2022-12-10T07:31:01;101021.53;;;2.28;77.71
66524;BME280;53350;52.210;5.160;2022-12-10T07:33:28;101019.81;;;2.29;77.34
66524;BME280;53350;52.210;5.160;2022-12-10T07:35:55;101013.72;;;2.20;77.31
66524;BME280;53350;52.210;5.160;2022-12-10T07:38:21;101023.88;;;2.20;77.58
66524;BME280;53350;52.210;5.160;2022-12-10T07:40:48;101012.00;;;2.19;77.62
66524;BME280;53350;52.210;5.160;2022-12-10T07:43:15;101020.22;;;2.09;77.66
66524;BME280;53350;52.210;5.160;2022-12-10T07:45:41;101027.13;;;2.15;77.33
66524;BME280;53350;52.210;5.160;2022-12-10T07:48:08;101018.75;;;2.19;77.56
66524;BME280;53350;52.210;5.160;2022-12-10T07:50:35;101028.25;;;2.26;77.36
66524;BME280;53350;52.210;5.160;2022-12-10T07:53:02;101030.91;;;2.31;77.14
66524;BME280;53350;52.210;5.160;2022-12-10T07:55:28;101028.41;;;2.32;77.13
66524;BME280;53350;52.210;5.160;2022-12-10T07:57:55;101029.88;;;2.24;77.14
66524;BME280;53350;52.210;5.160;2022-12-10T08:00:21;101030.84;;;2.28;77.16
66524;BME280;53350;52.210;5.160;2022-12-10T08:02:48;101030.00;;;2.29;77.53
66524;BME280;53350;52.210;5.160;2022-12-10T08:05:14;101029.25;;;2.33;77.36
66524;BME280;53350;52.210;5.160;2022-12-10T08:07:42;101036.00;;;2.31;77.23
66524;BME280;53350;52.210;5.160;2022-12-10T08:10:08;101029.19;;;2.30;77.25
66524;BME280;53350;52.210;5.160;2022-12-10T08:12:35;101034.34;;;2.33;77.62
66524;BME280;53350;52.210;5.160;2022-12-10T08:15:01;101037.78;;;2.35;77.15
66524;BME280;53350;52.210;5.160;2022-12-10T08:17:29;101035.28;;;2.36;77.16
66524;BME280;53350;52.210;5.160;2022-12-10T08:19:55;101046.38;;;2.40;77.71
66524;BME280;53350;52.210;5.160;2022-12-10T08:22:22;101041.31;;;2.41;77.68
66524;BME280;53350;52.210;5.160;2022-12-10T08:24:49;101043.88;;;2.41;77.52
66524;BME280;53350;52.210;5.160;2022-12-10T08:27:16;101045.63;;;2.44;77.47
66524;BME280;53350;52.210;5.160;2022-12-10T08:29:42;101043.19;;;2.49;77.27
66524;BME280;53350;52.210;5.160;2022-12-10T08:32:09;101056.84;;;2.52;77.08
66524;BME280;53350;52.210;5.160;2022-12-10T08:34:35;101055.13;;;2.51;77.24
66524;BME280;53350;52.210;5.160;2022-12-10T08:37:01;101065.38;;;2.54;77.20
66524;BME280;53350;52.210;5.160;2022-12-10T08:39:29;101066.28;;;2.56;76.89
66524;BME280;53350;52.210;5.160;2022-12-10T08:41:57;101068.09;;;2.62;77.11
66524;BME280;53350;52.210;5.160;2022-12-10T08:44:23;101078.44;;;2.68;76.74
66524;BME280;53350;52.210;5.160;2022-12-10T08:46:50;101072.50;;;2.69;76.83
66524;BME280;53350;52.210;5.160;2022-12-10T08:49:16;101083.31;;;2.60;76.89
66524;BME280;53350;52.210;5.160;2022-12-10T08:51:43;101088.22;;;2.53;76.90
66524;BME280;53350;52.210;5.160;2022-12-10T08:54:09;101093.38;;;2.56;76.43
66524;BME280;53350;52.210;5.160;2022-12-10T08:56:35;101090.09;;;2.60;76.32
66524;BME280;53350;52.210;5.160;2022-12-10T08:59:05;101084.94;;;2.57;76.66
66524;BME280;53350;52.210;5.160;2022-12-10T09:01:32;101078.91;;;2.53;76.89
66524;BME280;53350;52.210;5.160;2022-12-10T09:03:59;101087.28;;;2.49;76.80
66524;BME280;53350;52.210;5.160;2022-12-10T09:06:26;101088.97;;;2.49;77.09
66524;BME280;53350;52.210;5.160;2022-12-10T09:08:53;101094.84;;;2.48;77.25
66524;BME280;53350;52.210;5.160;2022-12-10T09:11:23;101095.81;;;2.51;77.02
66524;BME280;53350;52.210;5.160;2022-12-10T09:13:50;101094.19;;;2.55;76.91
66524;BME280;53350;52.210;5.160;2022-12-10T09:16:18;101104.44;;;2.56;76.86
66524;BME280;53350;52.210;5.160;2022-12-10T09:18:44;101100.38;;;2.65;76.93
66524;BME280;53350;52.210;5.160;2022-12-10T09:21:12;101103.81;;;2.67;76.97
66524;BME280;53350;52.210;5.160;2022-12-10T09:23:40;101114.81;;;2.66;76.66
66524;BME280;53350;52.210;5.160;2022-12-10T09:26:07;101117.22;;;2.59;77.13
66524;BME280;53350;52.210;5.160;2022-12-10T09:28:34;101112.88;;;2.55;77.21
66524;BME280;53350;52.210;5.160;2022-12-10T09:31:02;101112.75;;;2.51;77.22
66524;BME280;53350;52.210;5.160;2022-12-10T09:33:31;101110.97;;;2.47;77.36
66524;BME280;53350;52.210;5.160;2022-12-10T09:35:58;101124.19;;;2.33;77.87
66524;BME280;53350;52.210;5.160;2022-12-10T09:38:25;101120.69;;;2.30;77.54
66524;BME280;53350;52.210;5.160;2022-12-10T09:40:58;101122.06;;;2.18;78.13
66524;BME280;53350;52.210;5.160;2022-12-10T09:43:32;101125.47;;;2.17;78.07
66524;BME280;53350;52.210;5.160;2022-12-10T09:46:06;101114.59;;;2.24;78.29
66524;BME280;53350;52.210;5.160;2022-12-10T09:48:48;101117.44;;;2.35;77.89
66524;BME280;53350;52.210;5.160;2022-12-10T09:51:21;101117.75;;;2.48;78.10
66524;BME280;53350;52.210;5.160;2022-12-10T09:53:49;101118.75;;;2.54;77.78
66524;BME280;53350;52.210;5.160;2022-12-10T09:56:25;101118.75;;;2.54;77.62
66524;BME280;53350;52.210;5.160;2022-12-10T09:58:52;101123.19;;;2.61;77.34
66524;BME280;53350;52.210;5.160;2022-12-10T10:01:22;101127.59;;;2.69;77.14
66524;BME280;53350;52.210;5.160;2022-12-10T10:03:51;101130.25;;;2.73;77.54
66524;BME280;53350;52.210;5.160;2022-12-10T10:06:18;101132.81;;;2.75;77.21
66524;BME280;53350;52.210;5.160;2022-12-10T10:08:47;101135.44;;;2.78;76.90
66524;BME280;53350;52.210;5.160;2022-12-10T10:11:18;101137.13;;;2.77;77.16
66524;BME280;53350;52.210;5.160;2022-12-10T10:13:47;101135.44;;;2.78;76.96
66524;BME280;53350;52.210;5.160;2022-12-10T10:16:23;101139.66;;;2.76;76.87
66524;BME280;53350;52.210;5.160;2022-12-10T10:18:56;101138.06;;;2.80;76.59
66524;BME280;53350;52.210;5.160;2022-12-10T10:21:26;101133.88;;;2.83;76.79
66524;BME280;53350;52.210;5.160;2022-12-10T10:23:54;101123.75;;;2.85;76.36
66524;BME280;53350;52.210;5.160;2022-12-10T10:26:20;101129.56;;;2.81;76.46
66524;BME280;53350;52.210;5.160;2022-12-10T10:28:51;101134.53;;;2.74;76.37
66524;BME280;53350;52.210;5.160;2022-12-10T10:31:23;101133.56;;;2.71;76.79
66524;BME280;53350;52.210;5.160;2022-12-10T10:33:54;101138.81;;;2.75;76.69
66524;BME280;53350;52.210;5.160;2022-12-10T10:36:26;101142.94;;;2.72;76.85
66524;BME280;53350;52.210;5.160;2022-12-10T10:38:53;101142.13;;;2.73;76.68
66524;BME280;53350;52.210;5.160;2022-12-10T10:41:20;101144.66;;;2.73;76.75
66524;BME280;53350;52.210;5.160;2022-12-10T10:43:59;101134.41;;;2.70;76.77
66524;BME280;53350;52.210;5.160;2022-12-10T10:46:27;101131.16;;;2.75;76.77
66524;BME280;53350;52.210;5.160;2022-12-10T10:49:12;101137.03;;;2.73;76.77
66524;BME280;53350;52.210;5.160;2022-12-10T10:51:42;101128.41;;;2.68;76.86
66524;BME280;53350;52.210;5.160;2022-12-10T10:54:08;101137.63;;;2.63;76.80
66524;BME280;53350;52.210;5.160;2022-12-10T10:56:40;101133.22;;;2.55;77.12
66524;BME280;53350;52.210;5.160;2022-12-10T10:59:07;101133.09;;;2.51;76.76
66524;BME280;53350;52.210;5.160;2022-12-10T11:01:48;101142.38;;;2.50;77.42
66524;BME280;53350;52.210;5.160;2022-12-10T11:04:18;101145.88;;;2.54;77.30
66524;BME280;53350;52.210;5.160;2022-12-10T11:06:50;101142.31;;;2.47;77.48
66524;BME280;53350;52.210;5.160;2022-12-10T11:09:25;101143.09;;;2.44;77.75
66524;BME280;53350;52.210;5.160;2022-12-10T11:11:58;101140.44;;;2.40;77.49
66524;BME280;53350;52.210;5.160;2022-12-10T11:14:29;101143.59;;;2.31;78.03
66524;BME280;53350;52.210;5.160;2022-12-10T11:17:02;101147.91;;;2.34;77.59
66524;BME280;53350;52.210;5.160;2022-12-10T11:19:30;101138.59;;;2.34;77.84
66524;BME280;53350;52.210;5.160;2022-12-10T11:22:15;101139.63;;;2.41;77.98
66524;BME280;53350;52.210;5.160;2022-12-10T11:24:42;101138.03;;;2.46;77.83
66524;BME280;53350;52.210;5.160;2022-12-10T11:27:11;101144.91;;;2.49;77.56
66524;BME280;53350;52.210;5.160;2022-12-10T11:29:46;101133.53;;;2.36;77.87
66524;BME280;53350;52.210;5.160;2022-12-10T11:32:39;101134.66;;;2.46;77.63
66524;BME280;53350;52.210;5.160;2022-12-10T11:35:14;101128.06;;;2.52;77.65
66524;BME280;53350;52.210;5.160;2022-12-10T11:37:50;101130.56;;;2.51;77.48
66524;BME280;53350;52.210;5.160;2022-12-10T11:40:38;101124.66;;;2.53;77.33
66524;BME280;53350;52.210;5.160;2022-12-10T11:43:32;101123.97;;;2.59;77.21
66524;BME280;53350;52.210;5.160;2022-12-10T11:46:13;101124.00;;;2.60;77.64
66524;BME280;53350;52.210;5.160;2022-12-10T11:48:53;101120.69;;;2.63;77.30
66524;BME280;53350;52.210;5.160;2022-12-10T11:51:27;101116.28;;;2.57;77.30
66524;BME280;53350;52.210;5.160;2022-12-10T11:54:06;101126.47;;;2.57;77.37
66524;BME280;53350;52.210;5.160;2022-12-10T11:56:40;101127.31;;;2.56;77.44
66524;BME280;53350;52.210;5.160;2022-12-10T11:59:16;101127.09;;;2.49;77.41
66524;BME280;53350;52.210;5.160;2022-12-10T12:02:00;101138.03;;;2.46;77.67
66524;BME280;53350;52.210;5.160;2022-12-10T12:04:43;101136.31;;;2.43;77.68
66524;BME280;53350;52.210;5.160;2022-12-10T12:07:25;101132.78;;;2.38;77.81
66524;BME280;53350;52.210;5.160;2022-12-10T12:10:22;101132.72;;;2.37;77.73
66524;BME280;53350;52.210;5.160;2022-12-10T12:12:55;101131.88;;;2.36;77.86
66524;BME280;53350;52.210;5.160;2022-12-10T12:15:29;101132.69;;;2.35;77.99
66524;BME280;53350;52.210;5.160;2022-12-10T12:17:58;101124.41;;;2.42;77.83
66524;BME280;53350;52.210;5.160;2022-12-10T12:20:29;101128.75;;;2.47;77.87
66524;BME280;53350;52.210;5.160;2022-12-10T12:23:03;101127.06;;;2.47;78.05
66524;BME280;53350;52.210;5.160;2022-12-10T12:25:34;101140.88;;;2.57;77.52
66524;BME280;53350;52.210;5.160;2022-12-10T12:28:05;101129.13;;;2.62;77.18
66524;BME280;53350;52.210;5.160;2022-12-10T12:30:35;101125.88;;;2.68;77.23
66524;BME280;53350;52.210;5.160;2022-12-10T12:33:08;101125.75;;;2.63;77.44
66524;BME280;53350;52.210;5.160;2022-12-10T12:35:41;101135.97;;;2.65;77.55
66524;BME280;53350;52.210;5.160;2022-12-10T12:38:21;101132.69;;;2.69;77.23
66524;BME280;53350;52.210;5.160;2022-12-10T12:40:51;101122.63;;;2.73;77.32
66524;BME280;53350;52.210;5.160;2022-12-10T12:43:22;101126.16;;;2.78;77.51
66524;BME280;53350;52.210;5.160;2022-12-10T12:45:53;101121.16;;;2.83;77.53
66524;BME280;53350;52.210;5.160;2022-12-10T12:48:24;101124.63;;;2.87;77.21
66524;BME280;53350;52.210;5.160;2022-12-10T12:50:55;101124.75;;;2.91;77.33
66524;BME280;53350;52.210;5.160;2022-12-10T12:53:25;101122.31;;;2.96;77.39
66524;BME280;53350;52.210;5.160;2022-12-10T12:55:57;101127.44;;;2.98;77.16
66524;BME280;53350;52.210;5.160;2022-12-10T12:58:36;101123.19;;;2.98;76.95
66524;BME280;53350;52.210;5.160;2022-12-10T13:01:14;101118.16;;;3.00;76.62
66524;BME280;53350;52.210;5.160;2022-12-10T13:03:43;101118.94;;;2.95;76.62
66524;BME280;53350;52.210;5.160;2022-12-10T13:06:22;101123.13;;;2.95;76.32
66524;BME280;53350;52.210;5.160;2022-12-10T13:08:57;101129.88;;;2.93;76.54
66524;BME280;53350;52.210;5.160;2022-12-10T13:11:33;101124.75;;;2.91;76.25
66524;BME280;53350;52.210;5.160;2022-12-10T13:14:30;101124.75;;;2.91;76.48